Time;durP1;ratioP1;P1;durP2;ratioP2;P2;SDS_P1;SDS_P2;PMS_P1;PMS_P2;Temp;Humidity;BMP_temperature;BMP_pressure;BME280_temperature;BME280_humidity;BME280_pressure;Samples;Min_cycle;Max_cycle;Signal;HPM_P1;HPM_P2
2021/11/16 00:01:37;;;;;;;;;3.50;3.50;;;;;21.35;38.37;101921.84;5058302;28;45317;-53
2021/11/16 00:04:04;;;;;;;;;5.75;5.75;;;;;21.36;37.78;101918.28;5057610;28;45699;-48
2021/11/16 00:06:29;;;;;;;;;4.50;4.50;;;;;21.36;37.82;101910.38;5056203;28;45366;-45
2021/11/16 00:08:54;;;;;;;;;6.00;4.50;;;;;21.37;38.31;101917.34;5057942;28;45437;-46
2021/11/16 00:11:20;;;;;;;;;4.00;4.00;;;;;21.36;38.02;101913.00;5058021;28;45390;-47
2021/11/16 00:13:46;;;;;;;;;6.25;5.25;;;;;21.37;37.71;101912.09;5057865;28;45414;-45
2021/11/16 00:16:11;;;;;;;;;6.00;5.00;;;;;21.36;38.20;101913.00;5057561;28;45514;-45
2021/11/16 00:18:37;;;;;;;;;3.00;3.00;;;;;21.35;37.69;101908.66;5057664;28;45462;-51
2021/11/16 00:21:05;;;;;;;;;4.75;4.75;;;;;21.35;37.83;101898.09;5057852;28;45555;-51
2021/11/16 00:23:35;;;;;;;;;4.25;4.25;;;;;21.33;37.85;101897.34;5057541;28;46442;-47
2021/11/16 00:26:02;;;;;;;;;5.75;4.50;;;;;21.33;38.11;101895.53;5057332;28;45452;-48
2021/11/16 00:28:28;;;;;;;;;4.75;4.75;;;;;21.31;37.60;101906.16;5056723;28;45356;-50
2021/11/16 00:30:53;;;;;;;;;7.00;4.75;;;;;21.29;37.82;101897.44;5057734;28;45327;-50
2021/11/16 00:33:21;;;;;;;;;4.50;4.00;;;;;21.28;38.08;101890.47;5057374;28;46111;-50
2021/11/16 00:35:48;;;;;;;;;5.00;5.00;;;;;21.30;38.05;101891.25;5057503;28;45303;-53
2021/11/16 00:38:15;;;;;;;;;5.50;4.00;;;;;21.30;37.41;101885.97;5057633;28;45863;-50
2021/11/16 00:40:43;;;;;;;;;4.50;3.25;;;;;21.29;37.97;101883.41;5057510;28;45546;-53
2021/11/16 00:43:09;;;;;;;;;5.00;4.25;;;;;21.24;37.82;101867.78;5057223;28;46374;-47
2021/11/16 00:45:41;;;;;;;;;2.25;2.25;;;;;21.24;37.51;101865.13;5056715;28;45620;-51
2021/11/16 00:48:08;;;;;;;;;3.25;3.25;;;;;21.27;37.63;101872.94;5057276;28;45418;-50
2021/11/16 00:50:35;;;;;;;;;6.50;5.00;;;;;21.24;38.06;101870.41;5057528;28;45439;-52
2021/11/16 00:53:01;;;;;;;;;6.50;3.50;;;;;21.24;37.91;101870.41;5057129;28;45762;-52
2021/11/16 00:55:26;;;;;;;;;6.75;4.00;;;;;21.22;37.95;101860.84;5057192;28;45344;-53
2021/11/16 00:57:52;;;;;;;;;4.00;4.00;;;;;21.22;37.78;101860.84;5057270;28;45178;-54
2021/11/16 01:00:18;;;;;;;;;4.25;3.75;;;;;21.21;37.86;101860.00;5057513;28;45630;-52
2021/11/16 01:02:45;;;;;;;;;3.50;3.50;;;;;21.20;37.93;101852.16;5057086;28;46409;-53
2021/11/16 01:05:14;;;;;;;;;4.00;3.00;;;;;21.19;37.76;101856.56;5038631;28;45371;-52
2021/11/16 01:07:41;;;;;;;;;5.00;4.75;;;;;21.17;37.78;101845.22;5057168;28;45217;-53
2021/11/16 01:10:10;;;;;;;;;4.75;3.00;;;;;21.14;37.59;101848.88;5057273;28;45539;-52
2021/11/16 01:12:36;;;;;;;;;3.00;3.00;;;;;21.15;38.28;101844.44;5056787;28;45716;-54
2021/11/16 01:15:04;;;;;;;;;3.25;3.25;;;;;21.11;37.82;101845.50;5056783;28;45935;-52
2021/11/16 01:17:29;;;;;;;;;2.00;2.00;;;;;21.13;38.13;101846.28;5056850;28;45317;-48
2021/11/16 01:19:54;;;;;;;;;5.25;4.50;;;;;21.12;37.81;101847.19;5056922;28;45635;-54
2021/11/16 01:22:20;;;;;;;;;3.00;3.00;;;;;21.12;38.41;101844.56;5056662;28;52457;-49
2021/11/16 01:24:46;;;;;;;;;3.75;3.75;;;;;21.10;37.85;101843.78;5056895;28;45300;-51
2021/11/16 01:27:17;;;;;;;;;6.00;4.50;;;;;21.09;37.89;101849.97;5056654;28;45339;-51
2021/11/16 01:29:43;;;;;;;;;5.00;3.75;;;;;21.09;38.04;101849.97;5056879;28;45309;-53
2021/11/16 01:32:24;;;;;;;;;4.75;2.75;;;;;21.07;37.90;101842.13;5055162;28;47315;-53
2021/11/16 01:34:49;;;;;;;;;3.50;3.00;;;;;21.06;37.99;101848.31;5055417;28;45370;-53
2021/11/16 01:37:14;;;;;;;;;4.00;3.00;;;;;21.06;38.17;101853.56;5056649;28;45261;-53
2021/11/16 01:39:40;;;;;;;;;3.25;3.25;;;;;21.02;38.27;101849.38;5056679;28;45628;-54
2021/11/16 01:42:05;;;;;;;;;3.75;3.00;;;;;21.04;38.18;101851.94;5056388;28;45872;-54
2021/11/16 01:44:31;;;;;;;;;3.00;3.00;;;;;21.03;38.23;101859.00;5038479;28;45460;-53
2021/11/16 01:46:57;;;;;;;;;4.50;4.00;;;;;21.03;38.40;101855.47;5056603;28;45395;-53
2021/11/16 01:49:22;;;;;;;;;5.00;3.75;;;;;21.01;37.91;101853.75;5056672;28;45287;-48
2021/11/16 01:51:47;;;;;;;;;3.25;3.00;;;;;20.98;38.40;101850.41;5038088;28;47140;-53
2021/11/16 01:54:13;;;;;;;;;3.00;3.00;;;;;21.00;37.92;101865.22;5056429;28;45415;-52
2021/11/16 01:56:43;;;;;;;;;3.75;3.50;;;;;20.96;38.29;101849.59;5058136;28;45403;-53
2021/11/16 01:59:09;;;;;;;;;2.50;2.50;;;;;20.99;38.31;101847.72;5060183;28;45482;-52
2021/11/16 02:01:37;;;;;;;;;5.25;4.25;;;;;21.00;37.95;101859.13;5059816;28;45658;-53
2021/11/16 02:04:04;;;;;;;;;5.50;3.00;;;;;20.96;38.29;101855.75;5059844;28;46229;-53
2021/11/16 02:06:36;;;;;;;;;4.25;4.25;;;;;20.97;38.63;101853.97;5059755;28;45451;-50
2021/11/16 02:09:06;;;;;;;;;4.50;3.00;;;;;20.94;37.90;101847.03;5060007;28;45329;-51
2021/11/16 02:11:32;;;;;;;;;3.00;2.50;;;;;20.94;38.37;101851.47;5059620;28;46254;-47
2021/11/16 02:13:59;;;;;;;;;7.00;4.00;;;;;20.89;38.19;101843.72;5059731;28;45394;-50
2021/11/16 02:16:25;;;;;;;;;3.00;3.00;;;;;20.89;38.44;101843.72;5059767;28;45423;-48
2021/11/16 02:18:51;;;;;;;;;3.00;3.00;;;;;20.88;37.79;101838.53;5060242;28;45335;-49
2021/11/16 02:21:18;;;;;;;;;2.00;2.00;;;;;20.90;38.25;101845.44;5059419;28;45487;-53
2021/11/16 02:23:44;;;;;;;;;5.50;3.25;;;;;20.89;37.91;101834.97;5059604;28;45387;-52
2021/11/16 02:26:12;;;;;;;;;4.00;2.00;;;;;20.88;37.96;101843.81;5059622;28;45312;-48
2021/11/16 02:28:41;;;;;;;;;3.00;3.00;;;;;20.87;38.08;101837.69;5041648;28;45349;-47
2021/11/16 02:31:06;;;;;;;;;4.00;2.75;;;;;20.86;37.79;101838.59;5059397;28;46382;-47
2021/11/16 02:33:32;;;;;;;;;3.50;3.50;;;;;20.82;37.91;101826.47;5059312;28;45348;-47
2021/11/16 02:35:57;;;;;;;;;3.25;3.25;;;;;20.84;38.41;101832.53;5059537;28;45414;-45
2021/11/16 02:38:23;;;;;;;;;5.00;4.00;;;;;20.81;37.77;101838.78;5059903;28;45388;-45
2021/11/16 02:40:48;;;;;;;;;3.00;3.00;;;;;20.80;37.95;101836.19;5040910;28;48377;-47
2021/11/16 02:43:14;;;;;;;;;3.00;3.00;;;;;20.82;38.58;101839.63;5059249;28;45346;-47
2021/11/16 02:45:41;;;;;;;;;2.25;2.25;;;;;20.82;38.21;101837.00;5059414;28;45208;-47
2021/11/16 02:48:13;;;;;;;;;2.50;2.00;;;;;20.80;38.01;101831.81;5059533;28;45258;-50
2021/11/16 02:50:40;;;;;;;;;4.00;3.50;;;;;20.76;37.97;101827.56;5059208;28;45521;-51
2021/11/16 02:53:06;;;;;;;;;3.00;3.00;;;;;20.79;38.52;101837.13;5059143;28;45253;-52
2021/11/16 02:55:32;;;;;;;;;2.75;2.75;;;;;20.79;37.91;101837.13;5059199;28;45257;-53
2021/11/16 02:57:57;;;;;;;;;2.25;2.25;;;;;20.78;37.98;101836.28;5059273;28;45543;-54
2021/11/16 03:00:23;;;;;;;;;4.00;4.00;;;;;20.78;38.26;101838.06;5059061;28;45310;-51
2021/11/16 03:02:49;;;;;;;;;4.50;3.75;;;;;20.77;38.42;101831.94;5040809;28;45655;-53
2021/11/16 03:05:15;;;;;;;;;2.50;2.50;;;;;20.77;38.31;101828.44;5058704;28;45412;-52
2021/11/16 03:07:47;;;;;;;;;2.75;2.00;;;;;20.74;38.37;101828.53;5059007;28;45391;-52
2021/11/16 03:10:15;;;;;;;;;2.25;2.00;;;;;20.76;38.19;101832.00;5058407;28;46960;-51
2021/11/16 03:12:40;;;;;;;;;3.50;2.00;;;;;20.75;38.04;101825.00;5058630;28;45760;-54
2021/11/16 03:15:07;;;;;;;;;3.50;1.25;;;;;20.75;38.09;101832.91;5058873;28;45455;-53
2021/11/16 03:17:32;;;;;;;;;3.00;3.00;;;;;20.74;38.21;101828.53;5057620;28;45360;-53
2021/11/16 03:19:57;;;;;;;;;3.00;3.00;;;;;20.70;38.32;101826.00;5058465;28;46314;-52
2021/11/16 03:22:36;;;;;;;;;3.50;2.00;;;;;20.70;38.01;101826.00;5058902;28;45338;-50
2021/11/16 03:25:02;;;;;;;;;2.25;2.00;;;;;20.73;38.24;101821.53;5058742;28;45327;-52
2021/11/16 03:27:33;;;;;;;;;4.00;2.75;;;;;20.72;38.60;101825.09;5058869;28;45508;-51
2021/11/16 03:29:59;;;;;;;;;6.00;4.50;;;;;20.70;38.59;101828.63;5058296;28;46482;-52
2021/11/16 03:32:34;;;;;;;;;5.25;2.25;;;;;20.70;38.46;101828.63;5058766;28;45218;-52
2021/11/16 03:35:00;;;;;;;;;3.50;2.75;;;;;20.68;38.66;101813.81;5058496;28;45292;-51
2021/11/16 03:37:34;;;;;;;;;4.75;3.00;;;;;20.69;38.06;101821.66;5059064;28;45364;-52
2021/11/16 03:40:01;;;;;;;;;3.25;2.75;;;;;20.70;38.07;101825.16;5058095;28;46368;-51
2021/11/16 03:42:27;;;;;;;;;3.00;2.00;;;;;20.68;38.20;101821.72;5058594;28;45682;-50
2021/11/16 03:44:52;;;;;;;;;2.50;2.50;;;;;20.67;38.10;101818.22;5058787;28;45298;-54
2021/11/16 03:47:19;;;;;;;;;3.25;3.25;;;;;20.67;38.44;101823.50;5058418;28;45778;-53
2021/11/16 03:49:45;;;;;;;;;2.50;2.50;;;;;20.64;38.58;101815.72;5057991;28;46698;-51
2021/11/16 03:52:10;;;;;;;;;2.00;2.00;;;;;20.66;38.17;101829.72;5039936;28;45446;-49
2021/11/16 03:54:36;;;;;;;;;4.25;3.75;;;;;20.64;38.46;101828.03;5058156;28;45324;-52
2021/11/16 03:57:01;;;;;;;;;2.00;2.00;;;;;20.66;38.63;101834.09;5058355;28;45521;-50
2021/11/16 03:59:30;;;;;;;;;3.00;3.00;;;;;20.65;38.66;101825.34;5058053;28;46564;-46
2021/11/16 04:01:56;;;;;;;;;3.00;3.00;;;;;20.67;38.49;101827.91;5058249;28;45264;-49
2021/11/16 04:04:23;;;;;;;;;2.00;2.00;;;;;20.65;38.18;101829.75;5058039;28;45238;-50
2021/11/16 04:06:48;;;;;;;;;2.75;2.25;;;;;20.64;38.25;101823.63;5058062;28;45715;-49
2021/11/16 04:09:14;;;;;;;;;3.00;3.00;;;;;20.64;38.40;101828.91;5057854;28;46171;-51
2021/11/16 04:11:41;;;;;;;;;3.00;3.00;;;;;20.64;38.08;101823.63;5057872;28;45431;-53
2021/11/16 04:14:06;;;;;;;;;4.00;1.75;;;;;20.64;38.58;101818.38;5057934;28;45303;-53
2021/11/16 04:16:31;;;;;;;;;1.75;1.75;;;;;20.64;38.36;101822.75;5057905;28;45491;-51
2021/11/16 04:18:57;;;;;;;;;2.75;2.75;;;;;20.62;38.60;101825.47;5057192;28;46542;-49
2021/11/16 04:21:23;;;;;;;;;4.25;3.00;;;;;20.61;38.63;101823.75;5057646;28;45448;-49
2021/11/16 04:23:48;;;;;;;;;5.00;3.00;;;;;20.59;38.66;101820.31;5057812;28;45426;-53
2021/11/16 04:26:14;;;;;;;;;1.50;1.50;;;;;20.61;38.38;101823.75;5057922;28;45574;-50
2021/11/16 04:28:39;;;;;;;;;2.00;2.00;;;;;20.61;38.48;101823.75;5057517;28;46195;-53
2021/11/16 04:31:05;;;;;;;;;0.00;0.00;;;;;20.58;38.32;101817.75;5057643;28;45344;-50
2021/11/16 04:33:30;;;;;;;;;2.50;2.50;;;;;20.60;38.44;101816.75;5057791;28;45330;-48
2021/11/16 04:35:56;;;;;;;;;1.25;1.25;;;;;20.59;38.49;101814.19;5058018;28;45407;-53
2021/11/16 04:38:21;;;;;;;;;4.00;3.00;;;;;20.55;38.23;101806.41;5057487;28;45604;-53
2021/11/16 04:40:53;;;;;;;;;2.50;2.50;;;;;20.57;38.53;101816.88;5057261;28;45347;-48
2021/11/16 04:43:22;;;;;;;;;4.25;3.00;;;;;20.54;38.53;101817.03;5057372;28;45273;-53
2021/11/16 04:45:51;;;;;;;;;2.50;2.00;;;;;20.53;38.22;101820.56;5056302;28;45296;-47
2021/11/16 04:48:33;;;;;;;;;2.25;2.25;;;;;20.59;38.18;101824.75;5056491;28;46375;-49
2021/11/16 05:04:36;;;;;;;;;2.00;2.00;;;;;20.54;38.33;101831.03;5057231;28;45297;-45
2021/11/16 05:07:04;;;;;;;;;3.25;3.25;;;;;20.51;38.38;101827.66;5057165;28;45296;-46
2021/11/16 05:09:31;;;;;;;;;3.50;2.25;;;;;20.53;38.59;101825.84;5057392;28;45591;-47
2021/11/16 05:11:58;;;;;;;;;2.00;2.00;;;;;20.53;38.56;101828.47;5057129;28;45729;-51
2021/11/16 05:14:23;;;;;;;;;2.00;2.00;;;;;20.53;38.69;101836.38;5057061;28;45364;-53
2021/11/16 05:16:49;;;;;;;;;2.25;2.25;;;;;20.53;38.71;101831.09;5057153;28;45435;-51
2021/11/16 05:19:14;;;;;;;;;1.00;1.00;;;;;20.52;38.46;101816.22;5056502;28;46147;-53
2021/11/16 05:21:40;;;;;;;;;5.50;2.00;;;;;20.59;38.63;101824.75;5056696;28;45472;-54
2021/11/16 05:24:05;;;;;;;;;3.00;3.00;;;;;20.62;38.85;101830.72;5056698;28;45371;-50
2021/11/16 05:26:31;;;;;;;;;2.00;2.00;;;;;20.65;38.78;101832.38;5055961;28;45391;-48
2021/11/16 05:28:58;;;;;;;;;3.00;2.75;;;;;20.68;38.27;101827.84;5056644;28;46410;-48
2021/11/16 05:31:25;;;;;;;;;3.75;3.25;;;;;20.73;38.75;101827.66;5038486;28;45370;-50
2021/11/16 05:33:54;;;;;;;;;1.50;1.50;;;;;20.77;38.62;101839.81;5056727;28;45411;-53
2021/11/16 05:36:19;;;;;;;;;3.50;3.00;;;;;20.80;38.51;101829.19;5039242;28;45636;-49
2021/11/16 05:38:47;;;;;;;;;2.50;2.25;;;;;20.85;38.69;101835.09;5056351;28;46104;-51
2021/11/16 05:41:14;;;;;;;;;2.00;2.00;;;;;20.88;38.60;101830.63;5056411;28;45312;-49
2021/11/16 05:43:42;;;;;;;;;4.25;2.25;;;;;20.92;38.38;101833.06;5056554;28;45257;-46
2021/11/16 05:46:08;;;;;;;;;2.75;2.75;;;;;20.96;38.44;101839.94;5056624;28;45239;-49
2021/11/16 05:48:41;;;;;;;;;3.25;3.00;;;;;20.99;38.16;101831.03;5038392;28;48696;-44
2021/11/16 05:51:08;;;;;;;;;4.00;3.00;;;;;20.98;38.06;101826.69;5056348;28;45732;-47
2021/11/16 05:53:35;;;;;;;;;2.25;2.25;;;;;21.00;38.41;101838.03;5056801;28;45348;-47
2021/11/16 05:56:00;;;;;;;;;4.50;3.50;;;;;21.00;38.09;101833.59;5038760;28;45326;-47
2021/11/16 05:58:26;;;;;;;;;3.50;3.00;;;;;21.07;38.17;101841.28;5056227;28;45525;-44
2021/11/16 06:00:52;;;;;;;;;2.00;2.00;;;;;21.07;38.11;101836.00;5038112;28;45975;-48
2021/11/16 06:03:18;;;;;;;;;2.00;2.00;;;;;21.09;37.87;101839.44;5055118;28;45416;-48
2021/11/16 06:05:44;;;;;;;;;4.25;2.75;;;;;21.11;38.21;101845.50;5056358;28;45753;-44
2021/11/16 06:08:22;;;;;;;;;3.25;2.75;;;;;21.13;37.68;101843.63;5056008;28;46639;-46
2021/11/16 06:10:47;;;;;;;;;3.25;2.00;;;;;21.11;38.20;101837.59;5054975;28;45371;-45
2021/11/16 06:13:13;;;;;;;;;3.75;3.75;;;;;21.14;38.02;101838.31;5056199;28;45355;-44
2021/11/16 06:15:38;;;;;;;;;1.50;1.50;;;;;21.14;38.18;101837.44;5056338;28;45456;-45
2021/11/16 06:18:04;;;;;;;;;3.00;3.00;;;;;21.17;38.07;101847.88;5056268;28;45373;-45
2021/11/16 06:20:31;;;;;;;;;2.75;2.75;;;;;21.17;37.97;101838.16;5055839;28;45387;-45
2021/11/16 06:22:57;;;;;;;;;3.25;2.00;;;;;21.16;38.03;101836.47;5056193;28;45442;-45
2021/11/16 06:25:23;;;;;;;;;3.00;3.00;;;;;21.15;37.59;101842.66;5056240;28;45541;-47
2021/11/16 06:27:49;;;;;;;;;1.00;1.00;;;;;21.19;37.90;101842.53;5055816;28;46072;-50
2021/11/16 06:30:15;;;;;;;;;1.75;1.75;;;;;21.19;37.84;101846.03;5055895;28;45208;-45
2021/11/16 06:32:41;;;;;;;;;2.75;2.75;;;;;21.18;37.91;101849.59;5056105;28;45418;-55
2021/11/16 06:35:14;;;;;;;;;4.25;2.00;;;;;21.16;37.83;101847.03;5056133;28;45556;-54
2021/11/16 06:37:39;;;;;;;;;4.00;2.00;;;;;21.16;38.08;101852.31;5055800;28;45605;-52
2021/11/16 06:40:05;;;;;;;;;3.00;2.50;;;;;21.18;37.70;101849.59;5056071;28;45347;-52
2021/11/16 06:42:31;;;;;;;;;1.75;1.75;;;;;21.15;37.63;101849.72;5057300;28;45733;-53
2021/11/16 06:44:56;;;;;;;;;2.00;1.75;;;;;21.15;37.49;101847.06;5059613;28;45605;-52
2021/11/16 06:47:22;;;;;;;;;4.50;3.00;;;;;21.18;37.53;101849.59;5059187;28;45564;-51
2021/11/16 06:49:49;;;;;;;;;4.00;3.00;;;;;21.19;37.99;101858.34;5059074;28;45402;-46
2021/11/16 06:52:15;;;;;;;;;2.25;2.00;;;;;21.16;37.81;101856.69;5059284;28;45403;-50
2021/11/16 06:54:41;;;;;;;;;2.00;2.00;;;;;21.16;37.59;101847.03;5059217;28;45371;-48
2021/11/16 06:57:07;;;;;;;;;5.25;2.75;;;;;21.13;37.69;101847.16;5059199;28;45451;-47
2021/11/16 06:59:33;;;;;;;;;5.00;3.00;;;;;21.10;37.97;101851.69;5059094;28;45721;-48
2021/11/16 07:01:58;;;;;;;;;4.50;2.50;;;;;21.12;38.09;101855.97;5059002;28;45549;-48
2021/11/16 07:04:24;;;;;;;;;4.00;2.50;;;;;21.13;37.48;101855.06;5059198;28;45669;-49
2021/11/16 07:06:52;;;;;;;;;3.25;3.25;;;;;21.13;37.98;101860.31;5058626;28;46039;-54
2021/11/16 07:09:19;;;;;;;;;2.50;2.50;;;;;21.09;37.71;101847.34;5058772;28;45435;-49
2021/11/16 07:11:55;;;;;;;;;3.00;2.75;;;;;21.13;38.01;101862.09;5058824;28;45464;-48
2021/11/16 07:14:26;;;;;;;;;2.50;2.00;;;;;21.09;37.89;101850.81;5058980;28;45328;-48
2021/11/16 07:16:54;;;;;;;;;3.75;3.00;;;;;21.10;38.10;101862.25;5058560;28;45356;-52
2021/11/16 07:20:01;;;;;;;;;3.00;3.00;;;;;21.08;38.05;101872.81;5058540;28;45486;-51
2021/11/16 07:22:32;;;;;;;;;1.00;1.00;;;;;21.08;38.22;101864.06;5013866;28;45451;-52
2021/11/16 07:25:02;;;;;;;;;2.00;2.00;;;;;21.05;38.10;101861.56;5058982;28;45372;-51
2021/11/16 07:27:42;;;;;;;;;3.00;2.00;;;;;21.05;38.05;101865.06;5058347;28;46528;-49
2021/11/16 07:30:10;;;;;;;;;4.00;2.75;;;;;21.05;38.09;101858.91;5058818;28;45870;-48
2021/11/16 07:33:10;;;;;;;;;2.00;2.00;;;;;21.03;38.17;101864.28;5058832;28;45475;-50
2021/11/16 07:35:36;;;;;;;;;3.25;3.00;;;;;21.03;38.01;101868.66;5047663;28;45345;-53
2021/11/16 07:38:07;;;;;;;;;2.00;2.00;;;;;21.01;38.26;101872.22;5058360;28;45326;-49
2021/11/16 07:40:36;;;;;;;;;4.25;3.00;;;;;21.00;38.46;101861.75;5040104;28;46204;-48
2021/11/16 07:43:06;;;;;;;;;4.00;3.00;;;;;20.96;37.98;101861.03;5058360;28;45435;-46
2021/11/16 07:45:41;;;;;;;;;2.00;2.00;;;;;20.99;38.24;101866.19;5058549;28;45492;-52
2021/11/16 07:48:09;;;;;;;;;4.50;3.00;;;;;20.97;37.86;101875.91;5040251;28;47287;-53
2021/11/16 07:50:40;;;;;;;;;1.00;0.75;;;;;20.94;38.12;101860.22;5058151;28;45378;-52
2021/11/16 07:53:14;;;;;;;;;2.50;2.00;;;;;20.97;38.43;101877.69;5058103;28;45404;-53
2021/11/16 07:55:42;;;;;;;;;2.25;2.25;;;;;20.96;37.97;101876.84;5058268;28;45329;-53
2021/11/16 07:58:10;;;;;;;;;4.75;3.25;;;;;20.96;38.07;101874.19;5058240;28;45515;-51
2021/11/16 08:00:39;;;;;;;;;5.25;4.50;;;;;20.95;38.34;101869.84;5058372;28;45270;-48
2021/11/16 08:03:11;;;;;;;;;5.75;3.00;;;;;20.91;38.31;101852.44;5056903;28;45511;-51
2021/11/16 08:11:22;;;;;;;;;2.25;1.75;;;;;20.92;38.23;101856.78;5057913;28;45305;-53
2021/11/16 08:14:00;;;;;;;;;3.50;2.50;;;;;20.92;38.54;101864.69;5058019;28;45322;-53
2021/11/16 08:16:28;;;;;;;;;3.75;2.25;;;;;20.90;38.27;101866.53;5057888;28;45605;-54
2021/11/16 08:18:59;;;;;;;;;5.00;4.00;;;;;20.89;37.90;101869.22;5057801;28;46407;-50
2021/11/16 08:21:26;;;;;;;;;4.00;3.25;;;;;20.87;38.17;101877.22;5057594;28;45767;-53
2021/11/16 08:23:53;;;;;;;;;5.75;3.00;;;;;20.73;37.93;101853.16;5057970;28;45415;-54
2021/11/16 08:26:20;;;;;;;;;3.00;3.00;;;;;20.85;38.11;101874.63;5039849;28;45264;-51
2021/11/16 08:28:48;;;;;;;;;2.00;2.00;;;;;20.84;38.15;101872.06;5057364;28;45537;-54
2021/11/16 08:31:14;;;;;;;;;2.00;2.00;;;;;20.84;38.25;101872.06;5057482;28;45330;-53
2021/11/16 08:33:40;;;;;;;;;3.25;3.00;;;;;20.79;38.36;101863.47;5058001;28;45236;-54
2021/11/16 08:36:06;;;;;;;;;2.00;2.00;;;;;20.81;37.94;101865.16;5057614;28;45208;-50
2021/11/16 08:38:36;;;;;;;;;2.00;2.00;;;;;20.77;38.12;101855.63;5057252;28;45417;-48
2021/11/16 08:41:02;;;;;;;;;2.00;2.00;;;;;20.80;38.43;101859.91;5057085;28;45718;-50
2021/11/16 08:43:38;;;;;;;;;2.75;2.00;;;;;20.78;38.15;101851.25;5057470;28;45340;-49
2021/11/16 08:46:10;;;;;;;;;2.00;2.00;;;;;20.77;37.86;101854.78;5056972;28;45324;-50
2021/11/16 08:48:40;;;;;;;;;3.25;3.00;;;;;20.74;38.47;101853.13;5056942;28;46659;-54
2021/11/16 08:51:08;;;;;;;;;3.00;3.00;;;;;20.74;38.50;101844.34;5057226;28;45281;-54
2021/11/16 08:53:40;;;;;;;;;2.75;2.25;;;;;20.77;38.27;101847.72;5057207;28;45229;-51
2021/11/16 08:56:12;;;;;;;;;4.75;4.00;;;;;20.77;38.09;101845.09;5057456;28;45431;-52
2021/11/16 08:58:38;;;;;;;;;3.75;3.00;;;;;20.77;38.62;101841.63;5057074;28;45392;-49
2021/11/16 09:01:07;;;;;;;;;1.75;1.75;;;;;20.78;38.56;101843.34;5056866;28;45346;-44
2021/11/16 09:03:42;;;;;;;;;2.75;2.75;;;;;20.77;38.71;101847.72;5056955;28;45192;-50
2021/11/16 09:06:22;;;;;;;;;2.50;2.50;;;;;20.79;38.30;101850.28;5056555;28;45414;-46
2021/11/16 09:09:12;;;;;;;;;3.75;3.75;;;;;20.77;38.12;101845.09;5056766;28;46447;-46
2021/11/16 09:12:02;;;;;;;;;2.75;2.75;;;;;20.78;38.73;101851.25;5056639;28;45355;-43
2021/11/16 09:14:28;;;;;;;;;1.75;1.75;;;;;20.77;38.40;101853.00;5056884;28;45454;-47
2021/11/16 09:16:54;;;;;;;;;3.50;2.00;;;;;20.74;38.79;101842.56;5057085;28;45924;-46
2021/11/16 09:19:23;;;;;;;;;4.50;3.25;;;;;20.76;38.10;101838.09;5056604;28;45706;-47
2021/11/16 09:21:49;;;;;;;;;3.00;3.00;;;;;20.75;38.50;101838.19;5056780;28;45694;-43
2021/11/16 09:24:17;;;;;;;;;2.25;2.00;;;;;20.73;38.76;101826.81;5056872;28;45433;-45
2021/11/16 09:29:21;;;;;;;;;4.50;2.25;;;;;20.75;38.47;101827.66;5056528;28;46178;-45
2021/11/16 09:32:02;;;;;;;;;2.75;2.00;;;;;20.74;38.44;101820.63;5056631;28;45570;-49
2021/11/16 09:34:28;;;;;;;;;2.75;2.75;;;;;20.73;38.66;101817.13;5056520;28;45406;-49
2021/11/16 09:37:00;;;;;;;;;2.75;2.00;;;;;20.73;38.59;101819.75;5056763;28;45506;-42
2021/11/16 09:39:34;;;;;;;;;3.00;2.75;;;;;20.74;38.34;101823.25;5056157;28;46767;-53
2021/11/16 09:42:06;;;;;;;;;2.00;2.00;;;;;20.73;38.41;101824.19;5056116;28;45912;-46
2021/11/16 09:44:40;;;;;;;;;5.00;3.00;;;;;20.72;38.40;101823.34;5055887;28;45700;-51
2021/11/16 09:47:17;;;;;;;;;4.00;2.00;;;;;20.68;38.00;101814.66;5053283;28;45163;-49
2021/11/16 09:50:07;;;;;;;;;2.75;2.00;;;;;20.71;38.38;101805.81;5053630;28;45660;-44
2021/11/16 09:52:43;;;;;;;;;0.00;0.00;;;;;20.70;37.94;101812.00;5031590;28;45954;-47
2021/11/16 09:55:10;;;;;;;;;3.00;3.00;;;;;20.68;38.09;101808.56;5046795;28;45524;-44
2021/11/16 09:57:40;;;;;;;;;3.00;3.00;;;;;20.67;37.88;101814.75;5046038;28;45778;-42
2021/11/16 10:00:13;;;;;;;;;3.75;2.50;;;;;20.64;38.10;101813.09;5048493;28;46142;-44
2021/11/16 10:02:42;;;;;;;;;2.00;2.00;;;;;20.61;38.48;101813.22;5055554;28;45396;-45
2021/11/16 10:05:17;;;;;;;;;5.00;3.75;;;;;20.63;37.73;101821.03;5054413;28;45761;-44
2021/11/16 10:07:43;;;;;;;;;4.00;3.25;;;;;20.60;38.35;101819.41;5055307;28;45505;-43
2021/11/16 10:10:08;;;;;;;;;3.50;3.00;;;;;20.60;37.94;101816.75;5055448;28;45569;-47
2021/11/16 10:12:42;;;;;;;;;1.50;1.00;;;;;20.58;38.05;101818.59;5055511;28;45384;-44
2021/11/16 10:15:10;;;;;;;;;3.50;2.25;;;;;20.56;38.31;101820.44;5055661;28;45435;-42
2021/11/16 10:17:38;;;;;;;;;4.00;2.50;;;;;20.53;37.96;101813.50;5057618;28;45174;-43
2021/11/16 10:20:04;;;;;;;;;2.25;1.75;;;;;20.55;37.99;101824.84;5048672;28;45979;-50
2021/11/16 10:22:31;;;;;;;;;2.00;1.00;;;;;20.51;38.43;101811.88;5045727;28;45518;-45
2021/11/16 10:25:18;;;;;;;;;2.00;1.00;;;;;20.55;38.13;101824.00;5048483;28;45474;-43
2021/11/16 10:27:45;;;;;;;;;3.50;1.25;;;;;20.54;38.17;101820.50;5055157;28;45392;-48
2021/11/16 10:30:13;;;;;;;;;5.25;2.00;;;;;20.54;37.94;101817.88;5055127;28;45896;-48
2021/11/16 10:32:41;;;;;;;;;3.75;2.00;;;;;20.53;37.95;101816.16;5059119;28;45483;-52
2021/11/16 10:35:14;;;;;;;;;3.75;2.75;;;;;20.55;38.16;101813.47;5058857;28;45552;-49
2021/11/16 10:37:56;;;;;;;;;2.00;2.00;;;;;20.54;38.16;101811.75;5058865;28;45566;-53
2021/11/16 10:40:25;;;;;;;;;1.00;1.00;;;;;20.50;37.97;101812.78;5058709;28;46579;-53
2021/11/16 10:42:53;;;;;;;;;2.00;2.00;;;;;20.53;38.15;101810.88;5040020;28;45947;-48
2021/11/16 10:45:22;;;;;;;;;2.00;2.00;;;;;20.53;38.39;101817.94;5040681;28;45296;-51
2021/11/16 10:47:47;;;;;;;;;2.75;2.75;;;;;20.52;38.03;101819.69;5059695;28;45374;-52
2021/11/16 10:50:17;;;;;;;;;2.50;1.00;;;;;20.52;37.88;101813.59;5059063;28;45388;-48
2021/11/16 10:52:43;;;;;;;;;2.50;2.00;;;;;20.50;38.36;101815.41;5058977;28;45878;-51
2021/11/16 10:55:09;;;;;;;;;1.00;1.00;;;;;20.52;37.96;101817.06;5059242;28;45258;-52
2021/11/16 10:57:56;;;;;;;;;3.00;3.00;;;;;20.52;37.92;101818.84;5059345;28;45274;-47
2021/11/16 11:01:03;;;;;;;;;2.75;2.00;;;;;20.52;38.38;101818.84;5058751;28;46952;-48
2021/11/16 11:03:45;;;;;;;;;2.00;2.00;;;;;20.52;38.01;101810.94;5049594;28;45683;-48
2021/11/16 11:06:21;;;;;;;;;3.50;2.50;;;;;20.51;38.00;101811.88;5058899;28;45394;-51
2021/11/16 11:08:57;;;;;;;;;2.50;1.75;;;;;20.50;38.09;101804.88;5059473;28;45324;-52
2021/11/16 11:11:32;;;;;;;;;3.50;1.00;;;;;20.51;38.31;101806.59;5058682;28;46454;-53
2021/11/16 11:14:10;;;;;;;;;1.75;1.75;;;;;20.50;38.17;101796.97;5058809;28;45819;-51
2021/11/16 11:16:50;;;;;;;;;1.50;1.50;;;;;20.49;37.89;101798.78;5058753;28;45423;-50
2021/11/16 11:19:24;;;;;;;;;1.00;1.00;;;;;20.46;37.94;101790.13;5059130;28;45495;-49
2021/11/16 11:21:59;;;;;;;;;2.25;1.00;;;;;20.49;38.57;101788.25;5058818;28;45354;-48
2021/11/16 11:24:29;;;;;;;;;3.25;2.50;;;;;20.46;38.20;101784.84;5058647;28;45397;-51
2021/11/16 11:27:09;;;;;;;;;1.50;1.50;;;;;20.48;37.80;101785.66;5058309;28;45545;-48
2021/11/16 11:29:44;;;;;;;;;2.00;2.00;;;;;20.49;38.59;101779.47;5058578;28;45391;-46
2021/11/16 11:32:15;;;;;;;;;2.75;2.00;;;;;20.47;38.44;101774.28;5058456;28;46746;-50
2021/11/16 11:34:59;;;;;;;;;3.00;3.00;;;;;20.49;38.45;101777.72;5058357;28;45446;-47
2021/11/16 11:38:03;;;;;;;;;3.75;3.00;;;;;20.48;38.45;101767.22;5058422;28;45495;-49
2021/11/16 11:40:36;;;;;;;;;2.00;2.00;;;;;20.48;38.37;101764.59;5043735;28;45493;-54
2021/11/16 11:43:02;;;;;;;;;4.25;3.75;;;;;20.48;38.10;101764.59;5058398;28;46195;-50
2021/11/16 11:45:50;;;;;;;;;2.00;2.00;;;;;20.47;38.44;101766.38;5059053;28;45305;-53
2021/11/16 11:48:19;;;;;;;;;2.25;1.75;;;;;20.47;38.04;101763.75;5058520;28;45534;-51
2021/11/16 11:51:11;;;;;;;;;2.00;2.00;;;;;20.48;38.50;101767.22;5058254;28;45555;-48
2021/11/16 11:53:38;;;;;;;;;4.00;4.00;;;;;20.46;38.05;101764.66;5058211;28;45781;-45
2021/11/16 11:56:07;;;;;;;;;3.00;3.00;;;;;20.47;37.99;101754.97;5057865;28;45892;-46